Time;durP1;ratioP1;P1;durP2;ratioP2;P2;SDS_P1;SDS_P2;PMS_P1;PMS_P2;Temp;Humidity;BMP_temperature;BMP_pressure;BME280_temperature;BME280_humidity;BME280_pressure;Samples;Min_cycle;Max_cycle;Signal;HPM_P1;HPM_P2
2022/10/14 00:02:50;;;;;;;18.60;11.40;;;21.60;68.00;;;;;;215448;1293;22468;-59
2022/10/14 00:07:53;;;;;;;23.30;11.70;;;21.60;67.50;;;;;;216917;1296;22461;-61
2022/10/14 00:12:57;;;;;;;17.60;11.40;;;21.60;67.50;;;;;;214783;1281;24360;-61
2022/10/14 00:18:01;;;;;;;16.70;10.50;;;21.60;67.60;;;;;;215428;1300;24247;-59
2022/10/14 00:23:05;;;;;;;17.30;11.00;;;21.60;67.50;;;;;;214528;1293;25174;-61
2022/10/14 00:28:08;;;;;;;22.10;11.30;;;21.60;67.80;;;;;;214940;1280;22518;-61
2022/10/14 00:33:13;;;;;;;14.80;10.60;;;21.50;67.50;;;;;;214736;1286;22470;-61
2022/10/14 00:38:16;;;;;;;16.30;10.80;;;21.50;67.60;;;;;;215012;1282;24278;-61
2022/10/14 00:43:23;;;;;;;15.00;10.00;;;21.50;67.70;;;;;;215058;1281;22834;-63
2022/10/14 00:48:26;;;;;;;15.30;10.50;;;21.50;67.50;;;;;;215047;1286;22464;-65
2022/10/14 00:53:31;;;;;;;16.30;10.60;;;21.50;67.30;;;;;;215124;1290;25199;-62
2022/10/14 00:58:36;;;;;;;17.50;10.20;;;21.50;67.80;;;;;;215016;1295;23857;-62
2022/10/14 01:03:40;;;;;;;20.20;10.90;;;21.50;67.80;;;;;;214951;1288;24449;-60
2022/10/14 01:09:22;;;;;;;24.50;12.40;;;21.40;67.70;;;;;;214967;1288;22604;-61
2022/10/14 01:14:37;;;;;;;18.80;11.00;;;21.40;67.60;;;;;;222760;1291;22132;-60
2022/10/14 01:20:05;;;;;;;18.40;11.30;;;21.40;67.70;;;;;;222992;1293;22135;-62
2022/10/14 01:25:21;;;;;;;15.20;10.30;;;21.50;67.70;;;;;;214896;1288;24226;-62
2022/10/14 01:30:30;;;;;;;15.70;10.60;;;21.50;67.60;;;;;;214982;1292;22595;-61
2022/10/14 01:36:01;;;;;;;14.70;10.50;;;21.40;67.60;;;;;;214836;1292;22465;-62
2022/10/14 01:41:22;;;;;;;13.90;9.80;;;21.40;67.60;;;;;;214962;1300;22956;-64
2022/10/14 01:46:28;;;;;;;16.20;10.00;;;21.40;67.70;;;;;;214817;1285;22475;-60
2022/10/14 01:51:40;;;;;;;17.20;10.50;;;21.40;68.10;;;;;;215105;1282;22502;-61
2022/10/14 01:56:45;;;;;;;;;;;21.30;68.20;;;;;;215030;1281;23072;-60
2022/10/14 02:01:49;;;;;;;16.90;9.90;;;21.30;67.70;;;;;;215131;1297;22466;-60
2022/10/14 02:07:09;;;;;;;16.90;10.00;;;21.30;67.70;;;;;;214890;1286;22447;-61
2022/10/14 02:12:53;;;;;;;14.00;9.40;;;21.30;67.70;;;;;;214902;1284;22455;-61
2022/10/14 02:18:26;;;;;;;13.90;9.80;;;21.30;67.90;;;;;;214989;1295;23930;-65
2022/10/14 02:23:37;;;;;;;14.10;9.90;;;21.30;67.70;;;;;;214601;1286;26024;-63
2022/10/14 02:28:42;;;;;;;13.40;9.60;;;21.30;68.20;;;;;;214717;1284;22504;-63
2022/10/14 02:33:52;;;;;;;17.80;9.50;;;21.30;68.00;;;;;;215030;1284;23041;-64
2022/10/14 02:38:59;;;;;;;15.40;10.20;;;21.30;68.30;;;;;;214787;1291;22508;-64
2022/10/14 02:44:05;;;;;;;14.00;9.70;;;21.30;68.50;;;;;;214959;1280;22574;-60
2022/10/14 02:49:09;;;;;;;13.30;9.70;;;21.20;68.20;;;;;;214964;1288;22451;-61
2022/10/14 02:54:13;;;;;;;15.50;10.30;;;21.20;67.40;;;;;;214776;1286;23840;-61
2022/10/14 02:59:16;;;;;;;14.70;9.90;;;21.20;67.60;;;;;;215195;1280;22595;-60
2022/10/14 03:04:20;;;;;;;16.20;9.90;;;21.20;68.20;;;;;;214865;1293;25373;-60
2022/10/14 03:09:24;;;;;;;17.00;10.40;;;21.20;67.80;;;;;;219933;1294;23006;-60
2022/10/14 03:14:27;;;;;;;16.00;9.90;;;21.20;67.90;;;;;;214858;1288;22459;-59
2022/10/14 03:19:31;;;;;;;13.20;9.60;;;21.20;68.10;;;;;;214598;1292;25279;-60
2022/10/14 03:24:36;;;;;;;14.30;10.30;;;21.20;67.80;;;;;;215064;1294;23847;-60
2022/10/14 03:30:03;;;;;;;14.20;9.70;;;21.10;67.70;;;;;;214760;1290;24314;-60
2022/10/14 03:35:09;;;;;;;11.80;9.00;;;21.20;67.90;;;;;;214713;1295;25342;-60
2022/10/14 03:40:13;;;;;;;14.70;9.20;;;21.10;67.80;;;;;;215043;1279;22458;-60
2022/10/14 03:45:17;;;;;;;11.00;8.70;;;21.10;67.90;;;;;;215006;1288;22578;-61
2022/10/14 03:50:23;;;;;;;11.80;9.20;;;21.10;67.80;;;;;;214924;1295;22577;-61
2022/10/14 03:55:29;;;;;;;13.50;9.40;;;21.10;67.90;;;;;;214751;1300;22830;-62
2022/10/14 04:00:34;;;;;;;12.90;8.90;;;21.10;67.80;;;;;;214897;1282;24238;-61
2022/10/14 04:05:55;;;;;;;13.40;9.50;;;21.10;67.80;;;;;;215149;1300;25332;-64
2022/10/14 04:11:00;;;;;;;14.30;9.70;;;21.10;67.80;;;;;;215023;1294;23131;-61
2022/10/14 04:16:09;;;;;;;16.40;9.60;;;21.10;67.90;;;;;;215136;1288;22461;-62
2022/10/14 04:21:28;;;;;;;12.50;9.00;;;21.10;68.00;;;;;;215001;1286;25134;-61
2022/10/14 04:26:33;;;;;;;19.30;10.30;;;21.10;67.90;;;;;;215034;1288;22472;-60
2022/10/14 04:31:39;;;;;;;12.40;9.40;;;21.10;68.20;;;;;;214786;1287;24279;-61
2022/10/14 04:36:43;;;;;;;12.10;8.60;;;21.00;67.80;;;;;;214891;1274;24279;-60
2022/10/14 04:41:57;;;;;;;14.40;9.00;;;21.00;67.90;;;;;;215064;1281;22640;-60
2022/10/14 04:47:00;;;;;;;15.60;8.90;;;21.00;67.80;;;;;;215053;1287;22511;-63
2022/10/14 04:52:04;;;;;;;12.10;8.90;;;21.00;68.00;;;;;;214765;1300;22506;-62
2022/10/14 04:57:20;;;;;;;16.10;9.20;;;21.00;68.20;;;;;;214926;1284;22616;-60
2022/10/14 05:02:24;;;;;;;14.40;9.40;;;21.00;68.10;;;;;;215030;1284;22471;-62
2022/10/14 05:07:34;;;;;;;13.50;8.50;;;21.00;68.30;;;;;;214840;1295;24253;-60
2022/10/14 05:12:54;;;;;;;12.90;9.00;;;21.00;67.70;;;;;;214930;1300;25229;-61
2022/10/14 05:17:59;;;;;;;12.50;9.00;;;21.00;67.90;;;;;;214817;1291;22706;-60
2022/10/14 05:23:33;;;;;;;12.20;8.90;;;20.90;67.80;;;;;;214994;1285;23882;-61
2022/10/14 05:28:38;;;;;;;11.10;8.40;;;20.90;67.90;;;;;;214776;1283;22467;-66
2022/10/14 05:33:42;;;;;;;12.30;9.10;;;20.90;67.80;;;;;;214794;1288;22460;-60
2022/10/14 05:38:47;;;;;;;13.00;8.40;;;20.90;67.90;;;;;;215018;1296;22464;-63
2022/10/14 05:43:52;;;;;;;12.20;7.90;;;20.90;68.30;;;;;;214720;1292;22494;-59
2022/10/14 05:48:56;;;;;;;14.70;8.70;;;20.90;68.40;;;;;;214866;1285;24327;-65
2022/10/14 05:54:00;;;;;;;12.80;8.50;;;20.90;68.30;;;;;;215142;1275;24296;-65
2022/10/14 05:59:04;;;;;;;15.00;9.10;;;20.90;68.80;;;;;;215013;1282;22468;-62
2022/10/14 06:04:16;;;;;;;17.80;8.90;;;21.00;69.00;;;;;;215031;1279;24279;-61
2022/10/14 06:09:20;;;;;;;24.50;10.10;;;21.00;69.00;;;;;;214707;1281;539860;-61
2022/10/14 06:14:27;;;;;;;14.10;9.10;;;20.90;69.00;;;;;;214978;1278;22530;-62
2022/10/14 06:19:34;;;;;;;17.70;9.40;;;21.00;69.50;;;;;;214658;1281;22461;-61
2022/10/14 06:24:39;;;;;;;16.10;9.10;;;21.00;69.00;;;;;;215100;1286;22480;-62
2022/10/14 06:29:45;;;;;;;14.80;9.20;;;21.00;68.90;;;;;;215100;1289;24241;-61
2022/10/14 06:34:49;;;;;;;18.00;8.40;;;21.00;68.90;;;;;;215054;1286;24487;-55
2022/10/14 06:39:56;;;;;;;13.70;8.60;;;20.90;68.90;;;;;;215356;1300;26466;-58
2022/10/14 06:45:00;;;;;;;17.00;9.60;;;21.00;68.80;;;;;;214861;1295;23945;-60
2022/10/14 06:50:06;;;;;;;23.00;9.70;;;21.00;68.70;;;;;;217346;1292;25445;-64
2022/10/14 06:55:10;;;;;;;15.80;9.30;;;20.90;68.50;;;;;;215188;1288;22517;-63
2022/10/14 07:00:14;;;;;;;16.40;9.60;;;20.90;68.80;;;;;;214947;1284;24236;-62
2022/10/14 07:05:18;;;;;;;15.40;8.80;;;20.90;68.60;;;;;;214998;1282;22587;-60
2022/10/14 07:10:22;;;;;;;17.80;9.60;;;20.90;68.70;;;;;;214949;1287;22487;-58
2022/10/14 07:15:25;;;;;;;18.80;8.90;;;20.90;68.60;;;;;;214958;1300;22751;-64
2022/10/14 07:20:34;;;;;;;17.80;9.00;;;20.90;68.00;;;;;;214875;1279;22512;-60
2022/10/14 07:25:39;;;;;;;18.20;9.20;;;20.90;67.70;;;;;;215123;1300;23880;-58
2022/10/14 07:30:45;;;;;;;20.50;9.70;;;21.00;67.80;;;;;;215023;1288;22531;-60
2022/10/14 07:35:48;;;;;;;14.80;9.30;;;21.00;68.60;;;;;;214952;1291;22469;-61
2022/10/14 07:41:03;;;;;;;13.50;8.60;;;21.10;68.40;;;;;;214790;1287;25528;-58
2022/10/14 07:46:16;;;;;;;11.80;9.00;;;21.10;68.10;;;;;;214963;1287;25754;-61
2022/10/14 07:51:22;;;;;;;16.10;8.90;;;21.20;67.90;;;;;;215098;1287;22456;-62
2022/10/14 07:56:29;;;;;;;15.90;8.60;;;21.20;68.30;;;;;;214914;1289;24330;-61
2022/10/14 08:01:33;;;;;;;15.20;9.30;;;21.20;67.50;;;;;;214972;1280;24238;-62
2022/10/14 08:06:39;;;;;;;11.60;8.00;;;21.30;67.40;;;;;;215179;1292;22472;-64
2022/10/14 08:11:42;;;;;;;17.60;9.00;;;21.30;67.10;;;;;;214930;1288;24916;-60
2022/10/14 08:16:46;;;;;;;17.00;8.40;;;21.20;68.10;;;;;;214461;1303;22473;-60
2022/10/14 08:21:50;;;;;;;13.00;8.50;;;21.20;67.80;;;;;;214475;1290;22501;-64
2022/10/14 08:26:56;;;;;;;18.50;9.30;;;21.30;67.70;;;;;;214301;1287;22500;-59
2022/10/14 08:32:01;;;;;;;21.50;10.00;;;21.20;66.70;;;;;;214945;1285;22484;-61
2022/10/14 08:37:10;;;;;;;13.30;9.20;;;21.30;66.90;;;;;;214438;1294;22614;-60
2022/10/14 08:42:55;;;;;;;17.10;8.70;;;21.30;66.60;;;;;;214515;1298;22464;-60
2022/10/14 08:48:16;;;;;;;13.20;8.50;;;21.40;66.60;;;;;;214386;1297;24259;-60
2022/10/14 08:53:35;;;;;;;16.30;9.10;;;21.30;66.80;;;;;;214401;1291;22855;-61
2022/10/14 08:58:50;;;;;;;16.60;10.00;;;21.40;66.80;;;;;;214627;1303;24354;-60
2022/10/14 09:04:12;;;;;;;16.50;9.10;;;21.40;66.60;;;;;;214165;1304;22971;-57
2022/10/14 09:09:47;;;;;;;13.80;8.70;;;21.50;66.70;;;;;;214078;1302;24325;-62
2022/10/14 09:15:06;;;;;;;15.20;9.00;;;21.50;66.70;;;;;;214737;1288;25192;-58
2022/10/14 09:20:17;;;;;;;12.90;9.20;;;21.60;66.70;;;;;;214674;1300;23601;-58
2022/10/14 09:25:21;;;;;;;13.70;9.20;;;21.60;66.00;;;;;;214788;1283;24231;-61
2022/10/14 09:30:39;;;;;;;13.30;9.10;;;21.70;66.20;;;;;;214955;1285;22483;-59
2022/10/14 09:35:52;;;;;;;13.50;9.30;;;21.80;65.70;;;;;;214954;1289;22469;-60
2022/10/14 09:41:00;;;;;;;12.70;9.60;;;22.00;65.40;;;;;;214913;1291;22544;-58
2022/10/14 09:46:09;;;;;;;12.60;8.80;;;22.20;64.80;;;;;;214916;1294;22478;-58
2022/10/14 09:51:29;;;;;;;14.20;9.60;;;22.20;65.00;;;;;;214929;1288;22467;-59
2022/10/14 09:56:41;;;;;;;15.30;9.50;;;22.30;65.10;;;;;;215165;1285;24957;-56
2022/10/14 10:01:50;;;;;;;14.00;9.50;;;22.40;65.00;;;;;;214949;1288;22504;-58
2022/10/14 10:06:55;;;;;;;11.90;8.60;;;22.40;64.60;;;;;;214875;1288;22491;-59
2022/10/14 10:12:18;;;;;;;15.90;9.70;;;22.30;64.90;;;;;;214953;1282;22465;-60
2022/10/14 10:17:22;;;;;;;13.60;9.30;;;22.50;64.90;;;;;;214773;1293;25632;-59
2022/10/14 10:22:32;;;;;;;21.40;9.60;;;22.50;64.40;;;;;;214933;1281;22980;-61
2022/10/14 10:27:44;;;;;;;15.00;9.20;;;22.50;68.30;;;;;;214902;1288;22519;-59
2022/10/14 10:33:00;;;;;;;34.60;9.80;;;22.50;65.90;;;;;;214893;1282;24088;-60
2022/10/14 10:38:10;;;;;;;15.30;8.60;;;22.60;75.20;;;;;;214810;1296;22496;-62
2022/10/14 10:43:35;;;;;;;16.80;9.10;;;22.60;69.60;;;;;;214916;1300;25255;-61
2022/10/14 10:49:06;;;;;;;14.20;8.50;;;22.60;67.00;;;;;;214841;1288;22473;-62
2022/10/14 10:54:38;;;;;;;14.20;9.30;;;22.60;67.80;;;;;;214747;1293;22457;-60
2022/10/14 11:00:19;;;;;;;17.00;8.50;;;22.70;69.60;;;;;;214795;1294;25495;-59
2022/10/14 11:05:47;;;;;;;17.10;9.00;;;22.80;66.50;;;;;;214816;1286;25313;-58
2022/10/14 11:16:48;;;;;;;30.90;15.30;;;23.00;66.90;;;;;;214726;1300;25327;-57
2022/10/14 11:22:27;;;;;;;31.30;16.90;;;23.00;67.40;;;;;;214649;1291;25351;-57
2022/10/14 11:28:12;;;;;;;87.00;38.30;;;23.10;67.80;;;;;;214940;1300;24395;-56
2022/10/14 11:33:38;;;;;;;128.20;58.40;;;23.00;67.20;;;;;;213105;1295;22593;-59
2022/10/14 11:39:18;;;;;;;54.60;26.00;;;23.10;67.60;;;;;;214413;1298;22586;-59
2022/10/14 11:44:44;;;;;;;54.50;25.90;;;23.10;66.70;;;;;;214762;1294;22578;-58
2022/10/14 11:50:05;;;;;;;45.70;20.70;;;23.20;66.70;;;;;;214827;1281;22452;-61
2022/10/14 11:55:12;;;;;;;44.60;22.30;;;23.20;66.60;;;;;;214820;1287;24348;-61
2022/10/14 12:00:40;;;;;;;41.10;20.60;;;23.10;66.20;;;;;;214968;1281;25758;-61
2022/10/14 12:06:22;;;;;;;39.20;19.60;;;23.10;66.20;;;;;;214497;1288;24262;-60
2022/10/14 12:11:48;;;;;;;33.30;17.20;;;23.20;66.30;;;;;;214759;1268;24356;-61
2022/10/14 12:16:53;;;;;;;32.90;17.70;;;23.30;65.80;;;;;;214799;1291;22469;-58
2022/10/14 12:22:08;;;;;;;35.70;17.80;;;23.20;65.90;;;;;;215008;1282;22588;-59
2022/10/14 12:27:13;;;;;;;35.20;16.90;;;23.20;65.70;;;;;;214838;1286;22585;-59
2022/10/14 12:32:25;;;;;;;32.10;16.90;;;23.10;65.90;;;;;;215416;1296;23068;-60
2022/10/14 12:37:30;;;;;;;30.30;16.40;;;23.10;66.30;;;;;;214942;1291;25207;-59
2022/10/14 12:42:52;;;;;;;34.10;16.60;;;23.10;66.40;;;;;;214924;1288;25026;-57
2022/10/14 12:48:21;;;;;;;25.00;14.40;;;23.00;66.40;;;;;;215088;1275;24250;-60
2022/10/14 12:53:30;;;;;;;28.60;15.50;;;23.00;66.50;;;;;;214733;1300;25468;-59
2022/10/14 12:59:00;;;;;;;27.30;13.80;;;23.00;66.30;;;;;;215100;1290;25372;-59
2022/10/14 13:04:13;;;;;;;24.00;13.90;;;23.00;66.50;;;;;;214729;1295;22593;-60
2022/10/14 13:09:31;;;;;;;23.90;13.50;;;22.90;66.60;;;;;;214970;1298;22473;-61
2022/10/14 13:14:53;;;;;;;24.10;13.60;;;22.90;66.50;;;;;;214788;1300;25489;-58
2022/10/14 13:19:57;;;;;;;19.40;12.40;;;22.90;67.20;;;;;;214881;1291;22472;-54
2022/10/14 13:25:10;;;;;;;19.60;12.00;;;23.00;67.50;;;;;;214803;1271;24231;-58
2022/10/14 13:30:46;;;;;;;20.10;12.80;;;23.00;66.70;;;;;;214772;1285;24240;-58
2022/10/14 13:36:10;;;;;;;20.60;11.70;;;23.00;66.50;;;;;;214380;1297;22462;-58
2022/10/14 13:41:23;;;;;;;20.00;12.30;;;23.00;66.50;;;;;;214685;1281;22468;-59
2022/10/14 13:46:41;;;;;;;22.70;11.40;;;22.90;66.70;;;;;;214808;1276;24249;-59
2022/10/14 13:51:51;;;;;;;21.30;11.80;;;23.00;66.70;;;;;;215024;1292;25284;-59
2022/10/14 13:56:57;;;;;;;19.00;10.80;;;23.00;67.40;;;;;;214790;1275;22571;-58
2022/10/14 14:02:25;;;;;;;19.40;12.00;;;23.00;67.60;;;;;;214778;1278;25969;-58
2022/10/14 14:07:33;;;;;;;20.40;12.10;;;23.00;67.60;;;;;;214879;1300;24386;-58
2022/10/14 14:13:02;;;;;;;19.80;12.70;;;23.00;67.10;;;;;;214518;1286;24255;-56
2022/10/14 14:18:32;;;;;;;17.60;11.40;;;22.90;66.90;;;;;;219307;1292;25537;-58
2022/10/14 14:24:00;;;;;;;17.60;10.70;;;23.00;66.80;;;;;;215143;1295;25597;-57
2022/10/14 14:29:19;;;;;;;17.90;11.20;;;22.90;66.50;;;;;;214451;1300;24248;-56
2022/10/14 14:34:23;;;;;;;17.80;10.20;;;23.00;66.50;;;;;;214868;1281;22591;-61
2022/10/14 14:39:29;;;;;;;17.10;11.30;;;22.90;66.50;;;;;;214795;1282;22478;-58
2022/10/14 14:44:33;;;;;;;16.20;10.90;;;22.90;66.90;;;;;;214835;1285;23506;-56
2022/10/14 14:49:39;;;;;;;20.10;11.50;;;22.90;66.60;;;;;;214763;1297;26189;-58
2022/10/14 14:54:44;;;;;;;17.30;10.20;;;22.80;66.40;;;;;;214571;1291;26309;-58
2022/10/14 15:00:00;;;;;;;20.00;11.00;;;22.80;66.50;;;;;;214717;1282;22464;-55
2022/10/14 15:05:09;;;;;;;17.80;10.50;;;22.80;66.80;;;;;;214361;1278;24233;-56
2022/10/14 15:10:27;;;;;;;20.90;11.10;;;22.80;66.70;;;;;;214792;1285;24898;-59
2022/10/14 15:15:32;;;;;;;23.40;10.90;;;22.80;66.90;;;;;;214352;1279;22493;-58
2022/10/14 15:20:43;;;;;;;16.20;10.60;;;22.70;67.00;;;;;;214514;1295;22488;-57
2022/10/14 15:26:01;;;;;;;14.90;10.20;;;22.70;67.30;;;;;;215604;1284;25308;-57
2022/10/14 15:31:15;;;;;;;16.80;10.00;;;22.70;67.20;;;;;;214534;1300;23764;-59
2022/10/14 15:36:41;;;;;;;18.90;10.00;;;22.70;67.20;;;;;;214370;1290;22520;-57
2022/10/14 15:41:47;;;;;;;15.30;10.50;;;22.70;67.30;;;;;;214530;1285;25357;-56
2022/10/14 15:52:35;;;;;;;13.40;9.20;;;22.60;67.30;;;;;;213798;1287;22658;-59
2022/10/14 15:57:39;;;;;;;15.40;9.60;;;22.60;67.40;;;;;;214525;1286;24265;-55
2022/10/14 16:02:59;;;;;;;14.80;9.10;;;22.50;67.30;;;;;;214581;1286;23951;-56
2022/10/14 16:08:13;;;;;;;15.20;9.30;;;22.60;67.30;;;;;;214682;1282;25494;-55
2022/10/14 16:13:24;;;;;;;23.20;9.80;;;22.60;67.60;;;;;;214604;1300;25200;-52
2022/10/14 16:18:30;;;;;;;16.70;9.20;;;22.60;67.40;;;;;;214469;1284;23543;-60
2022/10/14 16:23:37;;;;;;;14.40;8.50;;;22.60;67.10;;;;;;214668;1288;25002;-59
2022/10/14 16:28:44;;;;;;;12.60;8.50;;;22.60;66.70;;;;;;214284;1286;25529;-58
2022/10/14 16:33:55;;;;;;;13.40;9.10;;;22.60;66.40;;;;;;214475;1284;22610;-57
2022/10/14 16:39:00;;;;;;;17.20;8.60;;;22.50;66.00;;;;;;214862;1276;23850;-60
2022/10/14 16:44:28;;;;;;;14.60;8.40;;;22.60;66.30;;;;;;214654;1286;22581;-59
2022/10/14 16:49:33;;;;;;;10.90;8.10;;;22.60;65.70;;;;;;214770;1281;24854;-60
2022/10/14 16:54:59;;;;;;;14.00;7.00;;;22.50;66.00;;;;;;214467;1296;22513;-62
2022/10/14 17:00:13;;;;;;;16.10;8.70;;;22.50;66.10;;;;;;214536;1286;25271;-60
2022/10/14 17:05:39;;;;;;;11.70;7.90;;;22.50;66.10;;;;;;214915;1273;24241;-58
2022/10/14 17:10:47;;;;;;;14.50;7.90;;;22.50;66.00;;;;;;214832;1291;24356;-59
2022/10/14 17:16:00;;;;;;;14.60;7.80;;;22.40;66.00;;;;;;214559;1294;22475;-63
2022/10/14 17:21:07;;;;;;;14.50;7.60;;;22.40;65.80;;;;;;214636;1294;22546;-58
2022/10/14 17:26:20;;;;;;;11.70;7.20;;;22.40;65.70;;;;;;214650;1284;25629;-61
2022/10/14 17:31:53;;;;;;;18.40;7.30;;;22.40;65.80;;;;;;214933;1291;24262;-59
2022/10/14 17:37:04;;;;;;;43.30;25.70;;;22.40;65.40;;;;;;214670;1286;23122;-61
2022/10/14 17:42:07;;;;;;;42.50;22.40;;;22.40;65.00;;;;;;214869;1278;23293;-59
2022/10/14 17:47:11;;;;;;;33.40;18.70;;;22.40;65.00;;;;;;214960;1288;25368;-60
2022/10/14 17:52:16;;;;;;;37.70;22.10;;;22.30;64.00;;;;;;214862;1284;22468;-59
2022/10/14 17:57:26;;;;;;;30.60;19.10;;;22.30;65.00;;;;;;214877;1280;22479;-59
2022/10/14 18:02:32;;;;;;;41.40;21.50;;;22.30;63.70;;;;;;214486;1300;25311;-60
2022/10/14 18:07:40;;;;;;;39.10;22.20;;;22.30;63.80;;;;;;214618;1298;191507;-62
2022/10/14 18:12:45;;;;;;;39.90;22.90;;;22.40;64.20;;;;;;214927;1294;23840;-55
2022/10/14 18:17:50;;;;;;;32.90;20.90;;;22.40;63.60;;;;;;214999;1286;23857;-60
2022/10/14 18:22:54;;;;;;;31.80;20.60;;;22.40;64.40;;;;;;215070;1292;22530;-59
2022/10/14 18:27:57;;;;;;;35.00;20.70;;;22.30;64.50;;;;;;214973;1300;25187;-57
2022/10/14 18:33:01;;;;;;;29.30;18.40;;;22.40;64.60;;;;;;214969;1281;22464;-63
2022/10/14 18:38:05;;;;;;;30.90;20.00;;;22.40;65.10;;;;;;214952;1292;22474;-63
2022/10/14 18:43:13;;;;;;;41.00;19.60;;;22.40;65.30;;;;;;214967;1300;25244;-60
2022/10/14 18:48:24;;;;;;;30.20;17.90;;;22.40;65.40;;;;;;214851;1281;22675;-62
2022/10/14 18:53:32;;;;;;;33.80;17.80;;;22.40;65.10;;;;;;214987;1278;23892;-61
2022/10/14 18:58:37;;;;;;;35.60;17.90;;;22.30;65.20;;;;;;214872;1285;23885;-62
2022/10/14 19:03:42;;;;;;;25.00;15.90;;;22.30;65.00;;;;;;214847;1294;24318;-60
2022/10/14 19:08:47;;;;;;;32.10;16.30;;;22.30;65.10;;;;;;214813;1294;22646;-58
2022/10/14 19:14:02;;;;;;;27.40;16.60;;;22.30;65.70;;;;;;214843;1295;24094;-60
2022/10/14 19:19:13;;;;;;;32.50;15.80;;;22.30;66.00;;;;;;214921;1294;23873;-60
2022/10/14 19:24:20;;;;;;;35.30;17.40;;;22.30;66.00;;;;;;215116;1277;22595;-58
2022/10/14 19:29:25;;;;;;;29.80;15.70;;;22.30;65.70;;;;;;215035;1300;25304;-60
2022/10/14 19:34:35;;;;;;;34.20;16.60;;;22.30;66.10;;;;;;214940;1283;25507;-61
2022/10/14 19:45:10;;;;;;;41.00;16.50;;;22.30;66.40;;;;;;214908;1279;24318;-57
2022/10/14 19:50:13;;;;;;;36.20;16.80;;;22.30;66.60;;;;;;215143;1285;23063;-53
2022/10/14 19:55:31;;;;;;;27.00;14.80;;;22.20;66.70;;;;;;214796;1288;22673;-64
2022/10/14 20:00:44;;;;;;;25.20;15.40;;;22.20;66.50;;;;;;214796;1293;23896;-60
2022/10/14 20:06:04;;;;;;;33.30;15.10;;;22.20;66.30;;;;;;215108;1294;25143;-59
2022/10/14 20:11:13;;;;;;;35.80;15.70;;;22.10;66.20;;;;;;214592;1278;22455;-61
2022/10/14 20:16:18;;;;;;;32.00;17.00;;;22.10;66.20;;;;;;214887;1291;22459;-60
2022/10/14 20:21:29;;;;;;;29.80;15.90;;;22.10;66.60;;;;;;214866;1300;25301;-62
2022/10/14 20:26:36;;;;;;;24.80;15.00;;;22.10;66.30;;;;;;214906;1293;22978;-61
2022/10/14 20:31:40;;;;;;;27.40;14.70;;;22.00;66.50;;;;;;214762;1287;24211;-61
2022/10/14 20:36:45;;;;;;;22.20;14.70;;;22.10;67.70;;;;;;214830;1284;22461;-61
2022/10/14 20:41:52;;;;;;;37.50;16.70;;;22.10;69.60;;;;;;214760;1277;23846;-60
2022/10/14 20:46:59;;;;;;;26.70;15.70;;;22.10;68.60;;;;;;214908;1281;24354;-61
2022/10/14 20:52:03;;;;;;;33.10;15.30;;;22.00;68.50;;;;;;214617;1300;25341;-55
2022/10/14 20:57:06;;;;;;;27.20;14.40;;;22.00;68.10;;;;;;215071;1281;24525;-61
2022/10/14 21:02:15;;;;;;;22.80;14.70;;;22.00;68.30;;;;;;214783;1295;22520;-62
2022/10/14 21:07:26;;;;;;;31.10;16.30;;;22.00;68.10;;;;;;214927;1285;25301;-61
2022/10/14 21:12:31;;;;;;;28.90;14.40;;;22.00;68.00;;;;;;214937;1278;24201;-61
2022/10/14 21:17:36;;;;;;;22.90;14.10;;;21.90;67.90;;;;;;214628;1285;24224;-62
2022/10/14 21:22:51;;;;;;;26.30;14.50;;;21.90;68.00;;;;;;214603;1274;25341;-61
2022/10/14 21:28:00;;;;;;;24.60;14.20;;;21.90;68.00;;;;;;215119;1292;24448;-61
2022/10/14 21:33:06;;;;;;;21.30;12.90;;;21.90;68.50;;;;;;214904;1299;24230;-60
2022/10/14 21:38:13;;;;;;;22.10;13.10;;;21.80;68.10;;;;;;216432;1293;22706;-60
2022/10/14 21:43:18;;;;;;;22.80;14.00;;;21.90;68.70;;;;;;216522;1288;22459;-59
2022/10/14 21:48:32;;;;;;;26.40;13.80;;;21.90;68.60;;;;;;215040;1285;24211;-61
2022/10/14 21:53:44;;;;;;;18.60;12.20;;;21.90;68.70;;;;;;215078;1281;22481;-62
2022/10/14 21:58:55;;;;;;;19.70;13.40;;;21.90;68.20;;;;;;215092;1286;23898;-59
2022/10/14 22:04:13;;;;;;;26.60;13.00;;;21.90;68.20;;;;;;214983;1284;23226;-61
2022/10/14 22:09:27;;;;;;;20.70;12.90;;;21.80;68.20;;;;;;214947;1285;24343;-62
2022/10/14 22:14:38;;;;;;;17.30;11.90;;;21.80;68.00;;;;;;215064;1286;22607;-61
2022/10/14 22:19:58;;;;;;;18.90;12.80;;;21.90;68.30;;;;;;215048;1283;24232;-63
2022/10/14 22:25:09;;;;;;;18.70;11.70;;;21.80;68.10;;;;;;215091;1300;23844;-60
2022/10/14 22:30:17;;;;;;;19.70;12.40;;;21.80;68.10;;;;;;215084;1284;25066;-62
2022/10/14 22:35:37;;;;;;;16.10;11.10;;;21.80;67.80;;;;;;215107;1286;23650;-63
2022/10/14 22:40:50;;;;;;;21.50;12.40;;;21.70;68.00;;;;;;215099;1300;22682;-61
2022/10/14 22:46:04;;;;;;;18.40;11.50;;;21.80;68.20;;;;;;215024;1292;25373;-60
2022/10/14 22:51:17;;;;;;;19.70;12.70;;;21.70;68.10;;;;;;215073;1295;24262;-60
2022/10/14 22:56:31;;;;;;;17.10;12.40;;;21.70;68.20;;;;;;215116;1291;24259;-62
2022/10/14 23:01:37;;;;;;;17.50;12.10;;;21.60;68.10;;;;;;215030;1285;22806;-61
2022/10/14 23:07:04;;;;;;;19.10;12.40;;;21.60;67.60;;;;;;215095;1286;22479;-60
2022/10/14 23:12:09;;;;;;;15.10;10.90;;;21.70;68.90;;;;;;215046;1285;22462;-62
2022/10/14 23:17:22;;;;;;;15.50;10.50;;;21.70;68.10;;;;;;214938;1294;25349;-62
2022/10/14 23:22:26;;;;;;;18.10;11.70;;;21.60;68.20;;;;;;216222;1291;22721;-59
2022/10/14 23:27:30;;;;;;;17.90;11.60;;;21.60;68.20;;;;;;215065;1281;22460;-61
2022/10/14 23:32:39;;;;;;;18.40;11.40;;;21.60;68.10;;;;;;214849;1300;22508;-62
2022/10/14 23:37:42;;;;;;;18.80;11.60;;;21.60;68.50;;;;;;215070;1291;22933;-60
2022/10/14 23:42:45;;;;;;;15.70;11.50;;;21.50;68.20;;;;;;215041;1281;25636;-63
2022/10/14 23:47:49;;;;;;;15.50;11.10;;;21.50;68.10;;;;;;214952;1275;22470;-62
2022/10/14 23:52:52;;;;;;;15.00;10.60;;;21.50;68.60;;;;;;214992;1297;22474;-60
2022/10/14 23:57:56;;;;;;;14.40;9.90;;;21.50;68.60;;;;;;215084;1288;24233;-63
